Time;durP1;ratioP1;P1;durP2;ratioP2;P2;SDS_P1;SDS_P2;PMS_P1;PMS_P2;Temp;Humidity;BMP_temperature;BMP_pressure;BME280_temperature;BME280_humidity;BME280_pressure;Samples;Min_cycle;Max_cycle;Signal;HPM_P1;HPM_P2
2022/10/01 00:00:51;;;;;;;12.13;11.13;;;;;;;11.69;100.00;99042.28;6278486;22;20218;-89
2022/10/01 00:03:19;;;;;;;11.47;10.47;;;;;;;11.69;100.00;99047.66;6279266;22;20208;-87
2022/10/01 00:05:46;;;;;;;11.90;10.90;;;;;;;11.68;100.00;99050.56;6279043;22;20216;-90
2022/10/01 00:08:14;;;;;;;12.37;11.27;;;;;;;11.79;100.00;99045.19;6305260;22;20204;-89
2022/10/01 00:10:42;;;;;;;12.37;11.20;;;;;;;11.74;100.00;99058.50;6280139;22;20200;-90
2022/10/01 00:13:09;;;;;;;12.40;11.27;;;;;;;11.66;100.00;99050.84;6279415;22;20211;-89
2022/10/01 00:15:39;;;;;;;12.30;11.30;;;;;;;11.69;100.00;99054.88;6279985;22;20207;-90
2022/10/01 00:18:07;;;;;;;13.33;12.13;;;;;;;11.69;100.00;99060.25;6250142;22;20214;-91
2022/10/01 00:20:34;;;;;;;13.57;12.20;;;;;;;11.70;100.00;99053.84;6254449;22;20203;-89
2022/10/01 00:23:00;;;;;;;13.50;12.40;;;;;;;11.71;100.00;99058.16;6279376;22;20204;-89
2022/10/01 00:25:27;;;;;;;14.07;12.67;;;;;;;11.73;100.00;99064.94;6277779;22;20207;-89
2022/10/01 00:27:54;;;;;;;13.17;11.97;;;;;;;11.72;100.00;99054.41;6254018;22;20656;-90
2022/10/01 00:30:21;;;;;;;13.50;12.27;;;;;;;11.76;100.00;99042.16;6253353;22;20279;-88
2022/10/01 00:32:47;;;;;;;14.23;12.93;;;;;;;11.81;100.00;99050.28;6306794;22;20188;-90
2022/10/01 00:35:14;;;;;;;13.07;11.83;;;;;;;11.81;100.00;99039.56;6253733;22;20199;-90
2022/10/01 00:37:41;;;;;;;14.27;12.97;;;;;;;11.84;100.00;99039.09;6253997;22;20208;-89
2022/10/01 00:40:08;;;;;;;13.70;12.43;;;;;;;11.85;100.00;99046.09;6304778;22;20200;-87
2022/10/01 00:42:34;;;;;;;13.50;12.33;;;;;;;11.85;100.00;99046.88;6289259;22;20207;-88
2022/10/01 00:45:01;;;;;;;13.80;12.60;;;;;;;11.81;100.00;99039.56;6291039;22;20205;-88
2022/10/01 00:47:32;;;;;;;14.73;13.33;;;;;;;11.82;100.00;99030.47;6247418;22;20200;-89
2022/10/01 00:50:32;;;;;;;14.33;13.03;;;;;;;11.83;100.00;99032.91;6247922;22;20650;-88
2022/10/01 00:53:06;;;;;;;13.40;12.20;;;;;;;11.82;100.00;99028.59;6247631;22;20231;-88
2022/10/01 00:55:43;;;;;;;13.60;12.40;;;;;;;11.85;100.00;99033.47;6222112;22;20212;-88
2022/10/01 00:58:12;;;;;;;13.53;12.33;;;;;;;11.90;100.00;99028.19;6273846;22;20288;-87
2022/10/01 01:00:40;;;;;;;14.27;13.07;;;;;;;11.88;100.00;99026.81;6274251;22;20213;-87
2022/10/01 01:03:08;;;;;;;13.73;12.40;;;;;;;11.94;100.00;99049.19;6274272;22;20213;-88
2022/10/01 01:05:34;;;;;;;13.77;12.67;;;;;;;11.83;100.00;99040.16;6247246;22;20262;-86
2022/10/01 01:08:02;;;;;;;13.80;12.50;;;;;;;11.75;100.00;99038.69;6271919;22;20229;-84
2022/10/01 01:10:33;;;;;;;15.00;13.70;;;;;;;11.81;100.00;99026.13;6274135;22;20210;-88
2022/10/01 01:13:12;;;;;;;14.60;13.30;;;;;;;11.78;100.00;99029.31;6274484;22;20211;-87
2022/10/01 01:15:43;;;;;;;15.23;13.83;;;;;;;11.83;100.00;99032.91;6247485;22;20212;-90
2022/10/01 01:18:20;;;;;;;16.60;15.10;;;;;;;11.89;100.00;99042.69;6221632;22;20204;-89
2022/10/01 01:20:47;;;;;;;15.57;14.17;;;;;;;11.86;100.00;99055.75;6222273;22;20283;-88
2022/10/01 01:23:13;;;;;;;16.67;15.07;;;;;;;11.92;100.00;99049.44;6274407;22;20232;-90
2022/10/01 01:25:49;;;;;;;17.20;15.60;;;;;;;11.84;100.00;99042.59;6247007;22;20211;-90
2022/10/01 01:28:30;;;;;;;17.30;15.70;;;;;;;11.76;100.00;99045.66;6221587;22;20295;-91
2022/10/01 01:31:00;;;;;;;16.80;15.20;;;;;;;11.75;100.00;99046.72;6223523;22;20291;-90
2022/10/01 01:33:29;;;;;;;17.80;16.10;;;;;;;11.74;100.00;99055.00;6247952;22;20212;-90
2022/10/01 01:36:15;;;;;;;17.83;16.17;;;;;;;11.78;100.00;99048.94;6222926;22;20255;-89
2022/10/01 01:38:59;;;;;;;18.50;16.83;;;;;;;11.79;100.00;99041.69;6211782;22;20607;-88
2022/10/01 01:41:28;;;;;;;20.00;18.10;;;;;;;11.75;100.00;99045.91;6222660;22;20232;-89
2022/10/01 01:43:57;;;;;;;18.87;17.03;;;;;;;11.78;100.00;99053.47;6274456;22;20775;-89
2022/10/01 01:46:30;;;;;;;19.47;17.57;;;;;;;11.79;100.00;99047.06;6244970;22;20196;-88
2022/10/01 01:48:59;;;;;;;20.40;18.30;;;;;;;11.74;100.00;99060.38;6273373;22;20242;-89
2022/10/01 01:51:40;;;;;;;21.80;19.60;;;;;;;11.86;100.00;99063.81;6273391;22;20998;-88
2022/10/01 01:54:07;;;;;;;19.90;18.07;;;;;;;11.67;100.00;99055.13;6274448;22;20232;-89
2022/10/01 01:56:34;;;;;;;20.60;18.70;;;;;;;11.65;100.00;99067.97;6273622;22;20204;-89
2022/10/01 01:59:02;;;;;;;19.57;17.63;;;;;;;11.58;100.00;99064.59;6273554;22;20214;-90
2022/10/01 02:01:40;;;;;;;20.07;18.27;;;;;;;11.59;100.00;99055.50;6273642;22;20201;-89
2022/10/01 02:04:22;;;;;;;20.87;18.80;;;;;;;11.56;100.00;99053.31;6272990;22;20208;-90
2022/10/01 02:07:15;;;;;;;20.67;18.57;;;;;;;11.57;100.00;99072.91;6273921;22;20269;-90
2022/10/01 02:10:00;;;;;;;20.07;18.07;;;;;;;11.59;100.00;99065.44;6248599;22;20240;-90
2022/10/01 02:13:00;;;;;;;20.43;18.43;;;;;;;11.60;100.00;99073.25;6273189;22;20205;-90
2022/10/01 02:15:53;;;;;;;21.23;19.07;;;;;;;11.64;100.00;99079.75;6263041;22;20204;-89
2022/10/01 02:19:10;;;;;;;20.63;18.73;;;;;;;11.67;100.00;99076.59;6247138;22;20269;-89
2022/10/01 02:21:57;;;;;;;21.03;19.00;;;;;;;11.69;100.00;99079.84;6248462;22;20208;-90
2022/10/01 02:24:33;;;;;;;19.13;17.40;;;;;;;11.70;100.00;99076.13;6272534;22;20227;-89
2022/10/01 02:27:02;;;;;;;20.07;18.10;;;;;;;11.78;100.00;99074.94;6247837;22;20207;-89
2022/10/01 02:29:29;;;;;;;20.50;18.37;;;;;;;11.76;100.00;99077.03;6276120;22;20200;-87
2022/10/01 02:31:56;;;;;;;19.40;17.50;;;;;;;11.83;100.00;99080.41;6274743;22;20208;-89
2022/10/01 02:34:28;;;;;;;20.70;18.73;;;;;;;11.80;100.00;99087.06;6273803;22;20204;-88
2022/10/01 02:36:56;;;;;;;21.00;18.97;;;;;;;11.86;100.00;99083.41;6274617;22;20228;-88
2022/10/01 02:39:26;;;;;;;20.87;18.77;;;;;;;11.85;100.00;99078.31;6274531;22;20196;-89
2022/10/01 02:41:54;;;;;;;21.60;19.40;;;;;;;11.80;100.00;99084.38;6275187;22;20224;-89
2022/10/01 02:44:26;;;;;;;22.07;19.97;;;;;;;11.81;100.00;99083.31;6252366;22;20293;-89
2022/10/01 02:47:06;;;;;;;22.70;20.43;;;;;;;11.91;100.00;99086.19;6280350;22;20546;-88
2022/10/01 02:49:34;;;;;;;22.70;20.50;;;;;;;11.93;100.00;99087.81;6255312;22;20207;-90
2022/10/01 02:52:07;;;;;;;23.43;21.10;;;;;;;11.96;100.00;99082.78;6279929;22;20584;-89
2022/10/01 02:54:55;;;;;;;22.93;20.67;;;;;;;11.88;100.00;99093.91;6306595;22;20279;-87
2022/10/01 02:57:22;;;;;;;23.43;21.13;;;;;;;11.85;100.00;99087.16;6279635;22;20533;-87
2022/10/01 02:59:57;;;;;;;23.33;21.03;;;;;;;11.82;100.00;99094.88;6279685;22;20204;-87
2022/10/01 03:02:26;;;;;;;24.00;21.40;;;;;;;11.82;100.00;99074.22;6279234;22;20202;-88
2022/10/01 03:04:55;;;;;;;23.63;21.33;;;;;;;11.89;100.00;99087.50;6279652;22;20290;-89
2022/10/01 03:07:23;;;;;;;22.87;20.57;;;;;;;11.86;100.00;99080.72;6280652;22;20203;-90
2022/10/01 03:09:49;;;;;;;22.53;20.43;;;;;;;11.81;100.00;99079.81;6254812;22;20274;-87
2022/10/01 03:12:17;;;;;;;21.50;19.40;;;;;;;11.81;100.00;99075.28;6279972;22;20208;-90
2022/10/01 03:14:44;;;;;;;22.33;20.33;;;;;;;11.82;100.00;99084.97;6280178;22;20200;-89
2022/10/01 03:17:12;;;;;;;23.03;20.73;;;;;;;11.88;100.00;99075.13;6254510;22;20207;-89
2022/10/01 03:19:39;;;;;;;23.43;20.90;;;;;;;11.84;100.00;99079.34;6306622;22;20273;-90
2022/10/01 03:22:07;;;;;;;22.63;20.33;;;;;;;11.84;100.00;99082.03;6289584;22;20211;-88
2022/10/01 03:24:33;;;;;;;21.97;19.90;;;;;;;11.79;100.00;99074.72;6305744;22;20199;-94
2022/10/01 03:27:00;;;;;;;22.40;20.30;;;;;;;11.85;100.00;99081.78;6279600;22;20231;-87
2022/10/01 03:29:27;;;;;;;22.63;20.43;;;;;;;11.82;100.00;99068.03;6305563;22;20212;-87
2022/10/01 03:31:53;;;;;;;22.50;20.33;;;;;;;11.93;100.00;99061.81;6305738;22;20210;-89
2022/10/01 03:34:20;;;;;;;22.43;20.33;;;;;;;11.79;100.00;99058.59;6277599;22;20211;-85
2022/10/01 03:36:47;;;;;;;22.27;20.17;;;;;;;11.76;100.00;99063.63;6277684;22;20257;-86
2022/10/01 03:39:14;;;;;;;22.80;20.60;;;;;;;11.81;100.00;99061.84;6278082;22;20211;-85
2022/10/01 03:41:40;;;;;;;22.63;20.40;;;;;;;11.78;100.00;99070.38;6278061;22;20675;-85
2022/10/01 03:44:07;;;;;;;22.30;20.10;;;;;;;11.79;100.00;99080.09;6304619;22;20213;-86
2022/10/01 03:46:33;;;;;;;23.10;20.90;;;;;;;11.86;100.00;99094.16;6305078;22;20203;-84
2022/10/01 03:49:00;;;;;;;23.30;21.07;;;;;;;11.87;100.00;99086.91;6305564;22;20655;-86
2022/10/01 03:51:27;;;;;;;23.17;20.87;;;;;;;11.84;100.00;99082.84;6305731;22;20219;-86
2022/10/01 03:53:55;;;;;;;22.73;20.63;;;;;;;11.80;100.00;99092.41;6277942;22;20212;-85
2022/10/01 03:56:21;;;;;;;22.97;20.70;;;;;;;11.81;100.00;99096.75;6277425;22;20519;-86
2022/10/01 03:58:48;;;;;;;22.43;20.33;;;;;;;11.83;100.00;99105.38;6305571;22;20214;-88
2022/10/01 04:01:15;;;;;;;21.73;19.73;;;;;;;11.84;100.00;99107.00;6278326;22;20212;-86
2022/10/01 04:03:42;;;;;;;23.20;21.07;;;;;;;11.85;100.00;99108.63;6305373;22;20585;-85
2022/10/01 04:06:09;;;;;;;23.03;20.83;;;;;;;11.79;100.00;99104.25;6304034;22;20208;-87
2022/10/01 04:08:37;;;;;;;21.77;19.73;;;;;;;11.83;100.00;99102.69;6304996;22;20250;-87
2022/10/01 04:11:05;;;;;;;23.27;20.90;;;;;;;11.85;100.00;99105.94;6278753;22;20189;-87
2022/10/01 04:13:33;;;;;;;22.60;20.50;;;;;;;11.93;100.00;99094.00;6305088;22;20200;-87
2022/10/01 04:16:01;;;;;;;22.53;20.23;;;;;;;11.88;100.00;99093.91;6305230;22;20682;-87
2022/10/01 04:18:28;;;;;;;21.03;19.03;;;;;;;11.89;100.00;99091.00;6277616;22;20624;-87
2022/10/01 04:20:54;;;;;;;22.70;20.50;;;;;;;11.89;100.00;99084.81;6278024;22;20544;-87
2022/10/01 04:23:21;;;;;;;21.70;19.57;;;;;;;11.89;100.00;99091.00;6305132;22;20707;-87
2022/10/01 04:25:48;;;;;;;20.37;18.47;;;;;;;11.87;100.00;99093.09;6304829;22;20552;-87
2022/10/01 04:28:15;;;;;;;22.00;19.90;;;;;;;11.88;100.00;99094.75;6304141;22;20203;-87
2022/10/01 04:30:44;;;;;;;22.33;20.23;;;;;;;11.89;100.00;99098.25;6278015;22;20730;-87
2022/10/01 04:33:13;;;;;;;23.20;21.00;;;;;;;11.86;100.00;99099.53;6252854;22;20205;-86
2022/10/01 04:35:40;;;;;;;22.13;20.03;;;;;;;11.89;100.00;99100.94;6305278;22;20205;-87
2022/10/01 04:38:17;;;;;;;22.23;20.10;;;;;;;11.90;100.00;99102.53;6304780;22;20668;-85
2022/10/01 04:40:44;;;;;;;23.40;21.00;;;;;;;11.92;100.00;99111.16;6305086;22;20594;-85
2022/10/01 04:43:12;;;;;;;21.97;19.97;;;;;;;11.96;100.00;99111.50;6305465;22;20184;-84
2022/10/01 04:45:38;;;;;;;23.13;20.80;;;;;;;11.97;100.00;99107.75;6282640;22;20204;-86
2022/10/01 04:48:05;;;;;;;22.70;20.43;;;;;;;11.95;100.00;99105.31;6246727;22;20247;-88
2022/10/01 04:50:32;;;;;;;22.40;20.30;;;;;;;11.98;100.00;99102.16;6273601;22;20215;-85
2022/10/01 04:52:58;;;;;;;22.53;20.33;;;;;;;11.93;100.00;99096.69;6247227;22;20258;-88
2022/10/01 04:55:25;;;;;;;24.57;22.17;;;;;;;11.96;100.00;99106.94;6247529;22;20217;-86
2022/10/01 04:57:51;;;;;;;24.70;22.40;;;;;;;11.94;100.00;99103.72;6274296;22;20201;-85
2022/10/01 05:00:21;;;;;;;25.00;22.60;;;;;;;11.95;100.00;99109.88;6273418;22;20229;-87
2022/10/01 05:02:49;;;;;;;25.53;23.03;;;;;;;11.96;100.00;99108.81;6273720;22;20212;-86
2022/10/01 05:05:16;;;;;;;24.67;22.27;;;;;;;11.96;100.00;99104.25;6273651;22;20209;-86
2022/10/01 05:07:43;;;;;;;25.40;22.90;;;;;;;11.98;100.00;99115.59;6246720;22;20208;-85
2022/10/01 05:10:13;;;;;;;23.03;20.87;;;;;;;11.94;100.00;99116.31;6272889;22;20208;-86
2022/10/01 05:12:40;;;;;;;24.43;22.03;;;;;;;11.94;100.00;99111.75;6246609;22;20208;-87
2022/10/01 05:15:07;;;;;;;23.87;21.57;;;;;;;12.04;100.00;99113.81;6273707;22;20224;-84
2022/10/01 05:17:34;;;;;;;22.57;20.37;;;;;;;12.04;100.00;99111.13;6246961;22;20212;-83
2022/10/01 05:20:03;;;;;;;22.87;20.67;;;;;;;12.08;100.00;99118.47;6272928;22;20200;-82
2022/10/01 05:22:30;;;;;;;23.47;21.37;;;;;;;12.14;100.00;99124.72;6246944;22;20293;-85
2022/10/01 05:24:59;;;;;;;22.97;20.73;;;;;;;12.15;100.00;99120.97;6273838;22;20528;-84
2022/10/01 05:27:26;;;;;;;23.10;20.90;;;;;;;12.19;100.00;99122.13;6221440;22;20214;-84
2022/10/01 05:29:53;;;;;;;22.80;20.60;;;;;;;12.23;100.00;99129.44;6273549;22;20206;-86
2022/10/01 05:32:19;;;;;;;21.33;19.13;;;;;;;12.29;100.00;99136.53;6273136;22;20212;-83
2022/10/01 05:34:46;;;;;;;21.60;19.47;;;;;;;12.33;100.00;99128.81;6273629;22;20204;-85
2022/10/01 05:37:18;;;;;;;21.97;19.87;;;;;;;12.41;100.00;99124.94;6273567;22;20672;-84
2022/10/01 05:39:45;;;;;;;21.60;19.57;;;;;;;12.45;100.00;99142.19;6273693;22;20209;-86
2022/10/01 05:42:12;;;;;;;21.67;19.57;;;;;;;12.47;100.00;99143.56;6272749;22;20209;-84
2022/10/01 05:44:44;;;;;;;21.53;19.53;;;;;;;12.53;100.00;99158.72;6246438;22;20229;-84
2022/10/01 05:47:12;;;;;;;21.90;19.80;;;;;;;12.58;100.00;99150.75;6273399;22;20212;-86
2022/10/01 05:49:41;;;;;;;21.27;19.30;;;;;;;12.69;100.00;99139.06;6246607;22;20684;-83
2022/10/01 05:52:12;;;;;;;21.20;19.10;;;;;;;12.72;100.00;99146.66;6272911;22;20234;-86
2022/10/01 05:54:39;;;;;;;21.10;19.10;;;;;;;12.77;100.00;99137.88;6246943;22;20237;-86
2022/10/01 05:57:06;;;;;;;20.60;18.70;;;;;;;12.84;100.00;99137.69;6244721;22;20215;-84
2022/10/01 05:59:33;;;;;;;19.93;18.13;;;;;;;12.91;100.00;99141.84;6271465;22;20205;-84
2022/10/01 06:02:00;;;;;;;20.60;18.70;;;;;;;12.99;100.00;99136.03;6247357;22;20212;-86
2022/10/01 06:04:27;;;;;;;20.47;18.47;;;;;;;13.04;100.00;99132.63;6274686;22;20251;-84
2022/10/01 06:06:54;;;;;;;19.73;17.93;;;;;;;13.09;100.00;99146.13;6275012;22;20528;-84
2022/10/01 06:09:21;;;;;;;20.13;18.23;;;;;;;13.07;100.00;99148.25;6274682;22;20728;-84
2022/10/01 06:11:48;;;;;;;20.00;18.20;;;;;;;13.08;100.00;99149.88;6248494;22;20233;-84
2022/10/01 06:14:15;;;;;;;20.10;18.30;;;;;;;13.17;100.00;99143.03;6247733;22;20521;-85
2022/10/01 06:16:42;;;;;;;19.40;17.60;;;;;;;13.25;100.00;99141.81;6275262;22;20203;-83
2022/10/01 06:19:09;;;;;;;20.30;18.40;;;;;;;13.34;100.00;99133.06;6274949;22;20210;-86
2022/10/01 06:21:35;;;;;;;20.53;18.43;;;;;;;13.40;100.00;99134.75;6275070;22;20920;-85
2022/10/01 06:24:03;;;;;;;21.40;19.30;;;;;;;13.41;100.00;99135.56;6273272;22;20202;-84
2022/10/01 06:26:30;;;;;;;20.37;18.37;;;;;;;13.38;100.00;99123.44;6274596;22;20672;-87
2022/10/01 06:28:56;;;;;;;20.60;18.57;;;;;;;13.48;100.00;99136.22;6274972;22;20211;-85
2022/10/01 06:31:23;;;;;;;20.50;18.57;;;;;;;13.50;100.00;99139.44;6248430;22;20305;-85
2022/10/01 06:33:50;;;;;;;20.07;18.27;;;;;;;13.51;100.00;99131.13;6275064;22;20241;-87
2022/10/01 06:36:17;;;;;;;19.90;18.10;;;;;;;13.50;100.00;99134.88;6274507;22;20208;-84
2022/10/01 06:38:47;;;;;;;20.47;18.47;;;;;;;13.54;100.00;99141.38;6275424;22;20202;-84
2022/10/01 06:41:13;;;;;;;19.33;17.53;;;;;;;13.58;100.00;99139.00;6274970;22;20215;-85
2022/10/01 06:43:40;;;;;;;20.03;18.03;;;;;;;13.57;100.00;99129.31;6274718;22;20541;-85
2022/10/01 06:46:06;;;;;;;19.93;18.17;;;;;;;13.61;100.00;99131.25;6300624;22;20208;-85
2022/10/01 06:48:35;;;;;;;19.13;17.33;;;;;;;13.68;100.00;99126.47;6305944;22;20211;-86
2022/10/01 06:51:02;;;;;;;19.60;17.80;;;;;;;13.73;100.00;99123.03;6279067;22;20544;-86
2022/10/01 06:53:29;;;;;;;19.03;17.33;;;;;;;13.81;100.00;99119.88;6278582;22;20702;-86
2022/10/01 06:55:56;;;;;;;18.70;16.97;;;;;;;13.87;100.00;99112.69;6305698;22;20215;-84
2022/10/01 06:58:26;;;;;;;17.97;16.37;;;;;;;13.93;100.00;99109.81;6305016;22;20207;-85
2022/10/01 07:01:00;;;;;;;17.33;15.80;;;;;;;14.04;100.00;99103.44;6305885;22;20210;-84
2022/10/01 07:03:27;;;;;;;18.20;16.43;;;;;;;14.12;100.00;99099.47;6278897;22;20205;-84
2022/10/01 07:06:01;;;;;;;19.03;17.20;;;;;;;14.24;100.00;99094.72;6305847;22;21394;-86
2022/10/01 07:08:27;;;;;;;16.87;15.40;;;;;;;14.45;100.00;99101.16;6305527;22;20202;-83
2022/10/01 07:10:59;;;;;;;17.57;15.87;;;;;;;14.57;100.00;99103.66;6305620;22;20199;-84
2022/10/01 07:13:25;;;;;;;17.30;15.80;;;;;;;14.73;100.00;99108.09;6305352;22;20206;-85
2022/10/01 07:15:52;;;;;;;17.17;15.57;;;;;;;14.86;100.00;99108.47;6278538;22;20206;-84
2022/10/01 07:18:19;;;;;;;16.57;15.07;;;;;;;14.99;100.00;99104.50;6305016;22;20546;-86
2022/10/01 07:20:46;;;;;;;17.97;16.37;;;;;;;15.17;100.00;99108.63;6305528;22;20290;-86
2022/10/01 07:23:14;;;;;;;18.23;16.63;;;;;;;15.28;100.00;99107.63;6305878;22;20253;-92
2022/10/01 07:25:41;;;;;;;17.03;15.43;;;;;;;15.50;100.00;99097.47;6279181;22;20231;-87
2022/10/01 07:28:16;;;;;;;15.60;14.30;;;;;;;15.72;100.00;99095.41;6303387;22;20209;-86
2022/10/01 07:30:46;;;;;;;14.93;13.53;;;;;;;15.91;100.00;99093.00;6254365;22;20209;-88
2022/10/01 07:33:16;;;;;;;14.13;12.83;;;;;;;16.14;100.00;99086.31;6278667;22;20746;-86
2022/10/01 07:35:43;;;;;;;13.40;12.30;;;;;;;16.39;100.00;99080.91;6305840;22;20204;-86
2022/10/01 07:38:09;;;;;;;14.60;13.20;;;;;;;16.61;100.00;99084.16;6305128;22;20195;-86
2022/10/01 07:40:36;;;;;;;15.17;13.87;;;;;;;16.79;100.00;99090.13;6305344;22;20207;-86
2022/10/01 07:43:03;;;;;;;34.63;28.80;;;;;;;16.92;100.00;99081.44;6305330;22;20233;-87
2022/10/01 07:45:29;;;;;;;33.07;29.70;;;;;;;17.11;100.00;99085.19;6278179;22;20207;-87
2022/10/01 07:47:58;;;;;;;24.17;21.77;;;;;;;17.25;100.00;99088.94;6252937;22;20261;-88
2022/10/01 07:50:26;;;;;;;17.40;15.80;;;;;;;17.45;100.00;99088.06;6305969;22;20211;-88
2022/10/01 07:52:54;;;;;;;14.03;12.73;;;;;;;17.82;100.00;99087.63;6253493;22;20206;-86
2022/10/01 07:55:23;;;;;;;14.60;13.30;;;;;;;18.31;100.00;99088.38;6278556;22;20214;-88
2022/10/01 07:57:51;;;;;;;12.13;11.07;;;;;;;18.65;100.00;99076.72;6305035;22;20211;-92
2022/10/01 08:00:18;;;;;;;11.90;10.90;;;;;;;18.32;100.00;99067.50;6305308;22;20258;-86
2022/10/01 08:02:53;;;;;;;11.30;10.40;;;;;;;18.19;100.00;99074.38;6278884;22;20209;-86
2022/10/01 08:05:22;;;;;;;10.63;9.73;;;;;;;18.09;100.00;99082.56;6278691;22;20211;-86
2022/10/01 08:07:48;;;;;;;10.83;9.93;;;;;;;18.25;100.00;99083.25;6241893;22;20557;-85
2022/10/01 08:10:16;;;;;;;9.67;8.90;;;;;;;18.28;100.00;99083.53;6276527;22;20717;-84
2022/10/01 08:12:44;;;;;;;9.40;8.50;;;;;;;18.24;100.00;99087.91;6303223;22;20827;-84
2022/10/01 08:15:13;;;;;;;9.03;8.33;;;;;;;18.25;100.00;99089.50;6277047;22;20706;-82
2022/10/01 08:17:40;;;;;;;10.27;9.37;;;;;;;18.26;100.00;99090.31;6252372;22;20223;-86
2022/10/01 08:20:09;;;;;;;10.13;9.27;;;;;;;18.32;100.00;99081.03;6278505;22;20179;-83
2022/10/01 08:22:36;;;;;;;9.97;9.07;;;;;;;18.34;100.00;99087.78;6279237;22;20203;-87
2022/10/01 08:25:08;;;;;;;9.47;8.77;;;;;;;18.16;100.00;99082.25;6279541;22;20203;-88
2022/10/01 08:27:35;;;;;;;9.13;8.40;;;;;;;17.71;100.00;99088.75;6302166;22;20203;-88
2022/10/01 08:30:02;;;;;;;9.40;8.60;;;;;;;17.83;100.00;99095.47;6278094;22;20279;-88
2022/10/01 08:32:30;;;;;;;8.67;7.97;;;;;;;17.89;100.00;99097.06;6253548;22;20203;-87
2022/10/01 08:34:58;;;;;;;8.70;8.00;;;;;;;17.83;100.00;99090.03;6254615;22;20223;-88
2022/10/01 08:37:26;;;;;;;25.93;23.23;;;;;;;17.85;100.00;99100.59;6254801;22;20238;-89
2022/10/01 08:39:54;;;;;;;17.60;15.83;;;;;;;17.86;100.00;99105.75;6253924;22;20210;-85
2022/10/01 08:42:36;;;;;;;13.93;12.60;;;;;;;17.75;100.00;99112.31;6279420;22;20196;-87
2022/10/01 08:45:13;;;;;;;9.87;8.97;;;;;;;17.57;100.00;99107.50;6278025;22;20211;-88
2022/10/01 08:47:44;;;;;;;11.40;10.50;;;;;;;17.48;100.00;99107.25;6253284;22;20955;-89
2022/10/01 08:50:31;;;;;;;8.80;8.10;;;;;;;17.43;100.00;99117.28;6253048;22;20218;-87
2022/10/01 08:53:01;;;;;;;7.90;7.20;;;;;;;17.33;100.00;99106.50;6254279;22;20203;-89
2022/10/01 08:55:35;;;;;;;7.90;7.30;;;;;;;17.22;100.00;99104.91;6252796;22;20203;-86
2022/10/01 08:58:07;;;;;;;8.70;8.00;;;;;;;17.02;100.00;99119.31;6253254;22;20214;-86
2022/10/01 09:00:38;;;;;;;8.40;7.60;;;;;;;16.98;100.00;99121.72;6228373;22;20703;-89
2022/10/01 09:03:10;;;;;;;7.93;7.23;;;;;;;16.95;100.00;99116.88;6252684;22;20211;-88
2022/10/01 09:05:58;;;;;;;8.13;7.43;;;;;;;16.96;100.00;99109.56;6278739;22;20287;-87
2022/10/01 09:08:58;;;;;;;8.53;7.83;;;;;;;16.99;100.00;99111.72;6252755;22;20230;-87
2022/10/01 09:11:53;;;;;;;8.00;7.30;;;;;;;17.01;100.00;99096.84;6301242;22;20213;-86
2022/10/01 09:14:29;;;;;;;7.90;7.27;;;;;;;16.99;100.00;99106.31;6302307;22;22897;-86
2022/10/01 09:17:22;;;;;;;7.73;7.00;;;;;;;16.98;100.00;99100.06;6303026;22;20209;-85
2022/10/01 09:19:53;;;;;;;7.10;6.20;;;;;;;16.90;100.00;99091.72;6304314;22;20207;-87
2022/10/01 09:22:43;;;;;;;7.30;6.70;;;;;;;16.89;100.00;99079.28;6315084;22;20199;-86
2022/10/01 09:25:16;;;;;;;6.60;6.10;;;;;;;16.93;100.00;99078.47;6251285;22;20208;-87
2022/10/01 09:27:43;;;;;;;6.70;6.20;;;;;;;16.81;100.00;99077.13;6277928;22;20546;-90
2022/10/01 09:30:13;;;;;;;6.73;6.13;;;;;;;16.86;100.00;99088.75;6251788;22;20666;-84
2022/10/01 09:33:01;;;;;;;5.80;5.40;;;;;;;16.85;100.00;99087.13;6278166;22;20190;-83
2022/10/01 09:35:37;;;;;;;6.10;5.60;;;;;;;16.85;100.00;99078.19;6305076;22;20207;-86
2022/10/01 09:38:42;;;;;;;6.20;5.70;;;;;;;17.02;100.00;99082.22;6254530;22;20286;-85
2022/10/01 09:41:10;;;;;;;6.47;5.97;;;;;;;17.16;100.00;99085.97;6280408;22;20207;-88
2022/10/01 09:43:38;;;;;;;6.97;6.40;;;;;;;17.29;100.00;99081.06;6255838;22;20207;-85
2022/10/01 09:46:12;;;;;;;6.93;6.43;;;;;;;17.40;100.00;99082.66;6307606;22;20200;-87
2022/10/01 09:48:53;;;;;;;6.60;6.10;;;;;;;17.52;100.00;99077.72;6282156;22;20207;-87
2022/10/01 09:51:24;;;;;;;13.37;12.17;;;;;;;17.63;100.00;99067.69;6255021;22;20659;-87
2022/10/01 09:54:03;;;;;;;7.37;6.87;;;;;;;17.86;100.00;99065.09;6255536;22;20211;-88
2022/10/01 09:56:41;;;;;;;6.40;5.80;;;;;;;18.16;100.00;99065.97;6280774;22;20199;-87
2022/10/01 09:59:16;;;;;;;6.17;5.67;;;;;;;18.30;100.00;99069.66;6256199;22;20211;-88
2022/10/01 10:01:46;;;;;;;6.47;5.87;;;;;;;18.57;100.00;99072.72;6281156;22;20227;-87
2022/10/01 10:04:22;;;;;;;5.70;5.30;;;;;;;18.70;98.23;99066.66;6280529;22;20232;-86
2022/10/01 10:06:50;;;;;;;6.33;5.80;;;;;;;18.64;99.49;99077.81;6255855;22;20707;-86
2022/10/01 10:09:18;;;;;;;6.40;5.80;;;;;;;18.51;100.00;99071.13;6255417;22;20241;-87
2022/10/01 10:11:45;;;;;;;5.60;5.20;;;;;;;18.39;100.00;99066.06;6255336;22;20227;-85
2022/10/01 10:14:18;;;;;;;5.90;5.40;;;;;;;18.19;100.00;99060.81;6254691;22;20211;-87
2022/10/01 10:16:46;;;;;;;6.03;5.30;;;;;;;18.22;100.00;99068.38;6255829;22;20203;-87
2022/10/01 10:19:22;;;;;;;5.70;5.20;;;;;;;18.21;100.00;99063.22;6255661;22;20211;-87
2022/10/01 10:21:55;;;;;;;5.43;5.03;;;;;;;18.23;100.00;99063.75;6255611;22;20208;-87
2022/10/01 10:24:25;;;;;;;5.67;5.17;;;;;;;18.21;100.00;99064.03;6254587;22;20216;-86
2022/10/01 10:26:55;;;;;;;5.77;5.37;;;;;;;18.23;100.00;99058.34;6254733;22;20209;-87
2022/10/01 10:29:26;;;;;;;5.50;5.00;;;;;;;18.20;100.00;99061.59;6254487;22;20206;-87
2022/10/01 10:31:54;;;;;;;5.47;4.97;;;;;;;18.14;100.00;99060.84;6280139;22;20263;-87
2022/10/01 10:34:30;;;;;;;5.93;5.43;;;;;;;18.12;100.00;99059.50;6280180;22;20560;-88
2022/10/01 10:36:59;;;;;;;5.83;5.40;;;;;;;18.20;100.00;99062.41;6255490;22;20719;-87
2022/10/01 10:39:32;;;;;;;4.87;4.53;;;;;;;18.36;100.00;99055.78;6281170;22;20208;-88
2022/10/01 10:42:01;;;;;;;5.43;4.93;;;;;;;18.42;100.00;99046.53;6281271;22;20523;-87
2022/10/01 10:44:33;;;;;;;5.13;4.77;;;;;;;18.53;100.00;99039.13;6306149;22;20207;-87
2022/10/01 10:47:04;;;;;;;12.93;11.73;;;;;;;18.49;100.00;99036.13;6255904;22;20275;-87
2022/10/01 10:49:39;;;;;;;13.10;11.80;;;;;;;18.44;100.00;99025.34;6255059;22;20230;-87
2022/10/01 10:52:23;;;;;;;9.53;8.77;;;;;;;18.40;100.00;99012.63;6279489;22;20242;-87
2022/10/01 10:54:53;;;;;;;8.50;7.70;;;;;;;18.51;100.00;99014.16;6255110;22;20286;-86
2022/10/01 10:57:26;;;;;;;8.17;7.50;;;;;;;18.74;100.00;99015.31;6255642;22;20210;-86
2022/10/01 11:00:15;;;;;;;6.93;6.33;;;;;;;19.16;100.00;99012.66;6279644;22;20231;-86
2022/10/01 11:03:00;;;;;;;5.87;5.37;;;;;;;19.28;100.00;99014.94;6259287;22;20200;-87
2022/10/01 11:05:30;;;;;;;14.47;12.97;;;;;;;19.44;100.00;99012.88;6279848;22;20204;-86
2022/10/01 11:08:01;;;;;;;24.10;19.33;;;;;;;19.39;100.00;99013.72;6254305;22;20287;-86
2022/10/01 11:10:37;;;;;;;9.40;8.50;;;;;;;19.31;100.00;99001.63;6279544;22;20199;-86
2022/10/01 11:13:11;;;;;;;8.40;7.60;;;;;;;19.28;100.00;99007.63;6253870;22;20207;-87
2022/10/01 11:15:50;;;;;;;7.37;6.77;;;;;;;19.22;100.00;98995.19;6278363;22;20228;-87
2022/10/01 11:18:20;;;;;;;7.17;6.47;;;;;;;19.27;100.00;99000.56;6279018;22;20246;-86
2022/10/01 11:20:59;;;;;;;7.70;6.90;;;;;;;19.47;96.62;98990.56;6278983;22;20260;-86
2022/10/01 11:23:46;;;;;;;6.97;6.23;;;;;;;19.85;95.34;98978.59;6254176;22;20208;-86
2022/10/01 11:26:27;;;;;;;6.47;5.87;;;;;;;20.02;94.03;98975.31;6278945;22;20235;-87
2022/10/01 11:29:02;;;;;;;5.03;4.63;;;;;;;20.36;91.19;98967.69;6279246;22;20204;-86
2022/10/01 11:32:01;;;;;;;4.90;4.50;;;;;;;20.67;86.44;98962.47;6305031;22;20212;-86